JP-0082 weather

Ajicho Helipad
Ajicho, Kagawa Prefecture, Japan

Public forecast

Using degrees Celsius for public forecast. Weather courtesy of forecast.io.

Closest aviation weather report (METAR) to Ajicho Helipad

Closest report is Takamatsu Airport, 12.4 nm (23.0 km) SSW. Retrieved 2020/05/28 04:00 UTC (10 minutes ago):

RJOT 280400Z VRB08KT 9999 FEW030 25/13 Q1008

Closest aviation forecast (TAF) to Ajicho Helipad

Closest forecast is Takamatsu Airport, 12.4 nm (23.0 km) SSW. Retrieved 2020-05-28 00:30 UTC (4 hours ago):

TAF TAF RJOT 272305Z 2800/2906 29009KT 9999 FEW035 BECMG 2810/2812 15006KT BECMG 2821/2900 30006KT